createdAt,value
2018-01-30T00:01:56.478Z,7.53
2018-01-30T00:04:25.855Z,8.73
2018-01-30T00:06:54.332Z,7.33
2018-01-30T00:09:22.807Z,14.67
2018-01-30T00:12:05.344Z,6.93
2018-01-30T00:14:34.006Z,8.57
2018-01-30T00:17:02.797Z,8.43
2018-01-30T00:19:31.428Z,8.10
2018-01-30T00:21:59.957Z,4.63
2018-01-30T00:24:35.836Z,9.27
2018-01-30T00:27:05.071Z,11.90
2018-01-30T00:29:34.320Z,12.47
2018-01-30T00:32:03.394Z,5.80
2018-01-30T00:34:32.145Z,8.43
2018-01-30T00:37:01.503Z,5.13
2018-01-30T00:39:30.586Z,8.10
2018-01-30T00:41:59.174Z,10.23
2018-01-30T00:44:27.689Z,8.83
2018-01-30T00:46:56.869Z,5.77
2018-01-30T00:49:25.638Z,5.83
2018-01-30T00:51:54.106Z,10.57
2018-01-30T00:54:24.956Z,8.93
2018-01-30T00:56:53.432Z,5.93
2018-01-30T00:59:30.307Z,4.33
2018-01-30T01:02:04.909Z,3.60
2018-01-30T01:04:35.088Z,7.90
2018-01-30T01:07:03.636Z,10.07
2018-01-30T01:09:51.474Z,6.20
2018-01-30T01:12:19.852Z,7.63
2018-01-30T01:14:49.356Z,7.90
2018-01-30T01:17:18.561Z,7.10
2018-01-30T01:19:47.236Z,11.17
2018-01-30T01:22:15.926Z,8.63
2018-01-30T01:24:45.724Z,7.90
2018-01-30T01:27:14.226Z,8.67
2018-01-30T01:29:43.955Z,8.70
2018-01-30T01:32:12.534Z,8.23
2018-01-30T01:34:41.092Z,12.77
2018-01-30T01:37:09.474Z,9.60
2018-01-30T01:39:44.138Z,8.10
2018-01-30T01:42:14.739Z,11.70
2018-01-30T01:44:43.855Z,9.50
2018-01-30T01:47:13.328Z,9.57
2018-01-30T01:49:53.379Z,11.13
2018-01-30T01:52:21.786Z,7.50
2018-01-30T01:54:50.112Z,13.13
2018-01-30T01:57:19.257Z,11.97
2018-01-30T01:59:47.609Z,12.13
2018-01-30T02:02:23.669Z,14.10
2018-01-30T02:04:52.147Z,11.67
2018-01-30T02:07:27.548Z,9.43
2018-01-30T02:09:58.638Z,8.73
2018-01-30T02:12:27.069Z,6.83
2018-01-30T02:14:55.596Z,9.57
2018-01-30T02:17:24.120Z,10.60
2018-01-30T02:19:56.344Z,14.73
2018-01-30T02:22:24.829Z,10.87
2018-01-30T02:24:53.307Z,9.70
2018-01-30T02:27:21.792Z,11.20
2018-01-30T02:29:50.205Z,10.70
2018-01-30T02:32:19.377Z,9.73
2018-01-30T02:34:47.848Z,7.97
2018-01-30T02:37:21.684Z,14.63
2018-01-30T02:39:51.629Z,13.03
2018-01-30T02:42:20.864Z,17.63
2018-01-30T02:44:50.577Z,12.17
2018-01-30T02:47:19.060Z,10.50
2018-01-30T02:49:55.615Z,7.53
2018-01-30T02:52:24.215Z,10.23
2018-01-30T02:54:52.796Z,11.33
2018-01-30T02:57:21.895Z,8.07
2018-01-30T02:59:50.265Z,11.37
2018-01-30T03:02:19.272Z,12.63
2018-01-30T03:04:47.744Z,8.83
2018-01-30T03:07:16.226Z,7.73
2018-01-30T03:09:44.531Z,13.47
2018-01-30T03:12:15.229Z,13.73
2018-01-30T03:14:43.826Z,11.50
2018-01-30T03:17:12.351Z,7.97
2018-01-30T03:19:40.878Z,7.80
2018-01-30T03:22:09.475Z,7.93
2018-01-30T03:24:39.174Z,8.83
2018-01-30T03:27:07.479Z,9.60
2018-01-30T03:29:35.927Z,16.17
2018-01-30T03:32:04.411Z,12.27
2018-01-30T03:34:39.245Z,11.83
2018-01-30T03:37:07.484Z,8.50
2018-01-30T03:39:36.711Z,9.10
2018-01-30T03:42:05.136Z,8.17
2018-01-30T03:44:36.061Z,11.67
2018-01-30T03:47:04.512Z,7.17
2018-01-30T03:49:32.991Z,15.73
2018-01-30T03:52:01.469Z,10.90
2018-01-30T03:54:29.950Z,12.63
2018-01-30T03:56:58.354Z,9.23
2018-01-30T03:59:26.813Z,8.23
2018-01-30T04:01:55.351Z,9.03
2018-01-30T04:04:24.597Z,11.97
2018-01-30T04:07:02.126Z,9.40
2018-01-30T04:09:31.486Z,7.07
2018-01-30T04:11:59.986Z,5.33
2018-01-30T04:14:28.358Z,9.83
2018-01-30T04:16:56.827Z,7.00
2018-01-30T04:19:25.304Z,14.80
2018-01-30T04:21:53.989Z,7.53
2018-01-30T04:24:22.475Z,10.77
2018-01-30T04:26:50.761Z,10.23
2018-01-30T04:29:19.350Z,9.30
2018-01-30T04:31:47.812Z,7.97
2018-01-30T04:34:31.025Z,7.80
2018-01-30T04:36:59.634Z,8.37
2018-01-30T04:39:33.222Z,10.27
2018-01-30T04:42:02.780Z,9.93
2018-01-30T04:44:31.107Z,8.53
2018-01-30T04:47:07.475Z,11.23
2018-01-30T04:49:35.957Z,15.33
2018-01-30T04:52:04.330Z,12.13
2018-01-30T04:54:33.629Z,8.87
2018-01-30T04:57:02.047Z,9.53
2018-01-30T04:59:30.489Z,10.63
2018-01-30T05:01:58.804Z,15.47
2018-01-30T05:04:27.307Z,13.43
2018-01-30T05:06:56.486Z,15.03
2018-01-30T05:09:26.400Z,9.87
2018-01-30T05:11:54.984Z,8.47
2018-01-30T05:14:24.492Z,15.70
2018-01-30T05:17:02.462Z,11.13
2018-01-30T05:19:30.930Z,12.33
2018-01-30T05:22:01.669Z,12.80
2018-01-30T05:24:30.062Z,11.37
2018-01-30T05:26:58.882Z,13.60
2018-01-30T05:29:28.238Z,12.13
2018-01-30T05:31:56.614Z,16.73
2018-01-30T05:34:37.083Z,17.73
2018-01-30T05:37:05.575Z,19.30
2018-01-30T05:39:33.935Z,19.47
2018-01-30T05:42:21.800Z,12.03
2018-01-30T05:45:09.551Z,14.83
2018-01-30T05:47:37.980Z,16.60
2018-01-30T05:50:06.411Z,14.10
2018-01-30T05:52:39.047Z,18.50
2018-01-30T05:55:07.517Z,22.47
2018-01-30T05:57:35.936Z,13.77
2018-01-30T06:00:04.483Z,15.40
2018-01-30T06:02:32.893Z,22.13
2018-01-30T06:05:01.645Z,27.47
2018-01-30T06:07:30.132Z,23.70
2018-01-30T06:09:58.814Z,24.17
2018-01-30T06:12:28.009Z,22.27
2018-01-30T06:15:02.533Z,32.63
2018-01-30T06:17:35.291Z,25.47
2018-01-30T06:20:04.508Z,35.83
2018-01-30T06:22:39.777Z,45.33
2018-01-30T06:25:08.236Z,79.07
2018-01-30T06:27:52.757Z,39.57
2018-01-30T06:30:22.116Z,34.77
2018-01-30T06:32:50.569Z,39.10
2018-01-30T06:35:19.404Z,28.00
2018-01-30T06:37:47.940Z,34.80
2018-01-30T06:40:16.869Z,22.90
2018-01-30T06:42:46.544Z,29.03
2018-01-30T06:45:15.436Z,18.23
2018-01-30T06:47:43.909Z,26.47
2018-01-30T06:50:12.705Z,20.83
2018-01-30T06:52:41.902Z,15.27
2018-01-30T06:55:17.986Z,16.67
2018-01-30T06:57:47.046Z,20.93
2018-01-30T07:00:15.633Z,29.97
2018-01-30T07:02:44.118Z,19.30
2018-01-30T07:05:12.907Z,23.77
2018-01-30T07:07:41.390Z,16.07
2018-01-30T07:10:09.869Z,11.80
2018-01-30T07:12:38.355Z,16.13
2018-01-30T07:15:14.220Z,15.90
2018-01-30T07:17:46.908Z,20.63
2018-01-30T07:20:15.364Z,30.53
2018-01-30T07:22:52.276Z,41.03
2018-01-30T07:25:40.197Z,29.43
2018-01-30T07:28:08.597Z,23.60
2018-01-30T07:30:37.140Z,23.97
2018-01-30T07:33:05.551Z,31.60
2018-01-30T07:35:35.704Z,31.90
2018-01-30T07:38:04.939Z,14.87
2018-01-30T07:40:41.106Z,21.03
2018-01-30T07:43:09.704Z,25.57
2018-01-30T07:45:38.365Z,12.80
2018-01-30T07:48:06.780Z,19.03
2018-01-30T07:50:36.712Z,23.17
2018-01-30T07:53:05.952Z,18.27
2018-01-30T07:55:41.405Z,10.93
2018-01-30T07:58:17.613Z,16.40
2018-01-30T08:00:47.169Z,15.93
2018-01-30T08:03:28.552Z,16.63
2018-01-30T08:05:57.027Z,12.00
2018-01-30T08:08:25.823Z,14.63
2018-01-30T08:11:00.885Z,11.30
2018-01-30T08:13:29.435Z,14.67
2018-01-30T08:15:57.811Z,19.37
2018-01-30T08:18:26.263Z,11.80
2018-01-30T08:20:56.221Z,14.70
2018-01-30T08:23:24.693Z,14.20
2018-01-30T08:25:52.962Z,14.10
2018-01-30T08:28:29.937Z,12.77
2018-01-30T08:31:04.602Z,16.87
2018-01-30T08:33:36.342Z,10.83
2018-01-30T08:36:04.682Z,18.70
2018-01-30T08:38:41.588Z,26.90
2018-01-30T08:41:10.588Z,14.53
2018-01-30T08:43:39.067Z,20.10
2018-01-30T08:46:07.659Z,18.43
2018-01-30T08:48:36.224Z,13.93
2018-01-30T08:51:04.612Z,20.20
2018-01-30T08:53:33.094Z,19.27
2018-01-30T08:56:02.306Z,20.50
2018-01-30T08:58:30.716Z,16.00
2018-01-30T09:01:00.632Z,17.60
2018-01-30T09:03:31.561Z,19.80
2018-01-30T09:06:01.527Z,18.37
2018-01-30T09:08:29.798Z,18.93
2018-01-30T09:10:58.495Z,20.73
2018-01-30T09:13:27.482Z,19.27
2018-01-30T09:15:56.516Z,19.20
2018-01-30T09:18:26.641Z,24.47
2018-01-30T09:20:55.186Z,24.90
2018-01-30T09:23:23.825Z,21.60
2018-01-30T09:25:53.272Z,21.97
2018-01-30T09:28:27.078Z,24.17
2018-01-30T09:30:55.657Z,23.33
2018-01-30T09:33:24.038Z,18.67
2018-01-30T09:35:52.369Z,25.30
2018-01-30T09:38:21.513Z,21.70
2018-01-30T09:40:49.992Z,16.03
2018-01-30T09:43:18.508Z,21.13
2018-01-30T09:45:47.902Z,19.30
2018-01-30T09:48:22.335Z,20.50
2018-01-30T09:50:51.430Z,26.47
2018-01-30T09:53:21.349Z,20.10
2018-01-30T09:55:50.870Z,25.47
2018-01-30T09:58:21.136Z,21.27
2018-01-30T10:00:49.560Z,20.27
2018-01-30T10:03:32.490Z,22.87
2018-01-30T10:06:02.489Z,21.90
2018-01-30T10:08:30.989Z,29.97
2018-01-30T10:11:00.258Z,23.63
2018-01-30T10:13:31.677Z,18.27
2018-01-30T10:15:59.991Z,16.47
2018-01-30T10:18:28.534Z,28.33
2018-01-30T10:20:57.020Z,19.93
2018-01-30T10:23:25.308Z,18.47
2018-01-30T10:25:54.699Z,24.77
2018-01-30T10:28:23.080Z,20.57
2018-01-30T10:30:52.171Z,26.00
2018-01-30T10:33:20.585Z,29.03
2018-01-30T10:35:49.575Z,22.13
2018-01-30T10:38:18.022Z,18.87
2018-01-30T10:40:46.507Z,21.53
2018-01-30T10:43:14.880Z,20.63
2018-01-30T10:45:43.385Z,27.03
2018-01-30T10:48:11.776Z,18.33
2018-01-30T10:50:41.600Z,17.80
2018-01-30T10:53:10.040Z,22.43
2018-01-30T10:55:38.409Z,20.00
2018-01-30T10:58:06.827Z,18.17
2018-01-30T11:00:42.754Z,19.87
2018-01-30T11:03:11.227Z,23.23
2018-01-30T11:05:39.639Z,17.75
2018-01-30T11:08:07.985Z,18.02
2018-01-30T11:10:36.290Z,15.73
2018-01-30T11:13:04.587Z,18.48
2018-01-30T11:15:32.934Z,19.30
2018-01-30T11:18:05.425Z,20.65
2018-01-30T11:20:33.811Z,19.70
2018-01-30T11:23:02.234Z,19.73
2018-01-30T11:25:30.629Z,19.15
2018-01-30T11:27:59.109Z,20.80
2018-01-30T11:30:27.592Z,22.52
2018-01-30T11:33:02.256Z,20.12
2018-01-30T11:35:31.135Z,20.52
2018-01-30T11:38:07.863Z,19.05
2018-01-30T11:40:36.188Z,16.70
2018-01-30T11:43:04.539Z,23.12
2018-01-30T11:45:32.970Z,21.80
2018-01-30T11:48:02.155Z,21.25
2018-01-30T11:50:30.702Z,21.95
2018-01-30T11:52:59.181Z,19.80
2018-01-30T11:55:27.761Z,23.20
2018-01-30T11:57:56.161Z,18.83
2018-01-30T12:00:27.892Z,15.27
2018-01-30T12:02:56.280Z,19.23
2018-01-30T12:05:25.683Z,16.83
2018-01-30T12:07:54.157Z,22.02
2018-01-30T12:10:27.667Z,21.60
2018-01-30T12:12:56.055Z,22.98
2018-01-30T12:15:24.553Z,18.08
2018-01-30T12:17:55.252Z,22.30
2018-01-30T12:20:23.772Z,20.10
2018-01-30T12:23:00.197Z,20.45
2018-01-30T12:25:28.683Z,15.77
2018-01-30T12:27:57.932Z,18.37
2018-01-30T12:30:27.175Z,16.25
2018-01-30T12:32:55.582Z,18.70
2018-01-30T12:35:24.039Z,17.98
2018-01-30T12:37:52.373Z,17.65
2018-01-30T12:40:22.950Z,22.17
2018-01-30T12:42:51.433Z,17.48
2018-01-30T12:45:20.226Z,19.05
2018-01-30T12:47:48.570Z,15.90
2018-01-30T12:50:16.967Z,17.90
2018-01-30T12:52:46.209Z,18.27
2018-01-30T12:55:14.756Z,12.53
2018-01-30T12:57:43.337Z,12.53
2018-01-30T13:00:11.920Z,12.90
2018-01-30T13:02:40.165Z,12.20
2018-01-30T13:05:09.800Z,13.57
2018-01-30T13:07:38.488Z,12.97
2018-01-30T13:10:06.966Z,14.60
2018-01-30T13:12:36.016Z,10.17
2018-01-30T13:15:04.542Z,11.63
2018-01-30T13:17:34.296Z,13.40
2018-01-30T13:20:03.141Z,12.03
2018-01-30T13:22:32.049Z,12.97
2018-01-30T13:25:00.515Z,13.07
2018-01-30T13:27:29.712Z,14.60
2018-01-30T13:29:58.196Z,9.03
2018-01-30T13:32:26.617Z,13.87
2018-01-30T13:34:55.055Z,12.03
2018-01-30T13:37:23.560Z,13.00
2018-01-30T13:39:52.019Z,11.87
2018-01-30T13:42:20.405Z,13.50
2018-01-30T13:44:49.376Z,14.63
2018-01-30T13:47:25.614Z,17.53
2018-01-30T13:49:54.848Z,16.17
2018-01-30T13:52:23.371Z,15.40
2018-01-30T13:54:53.764Z,15.63
2018-01-30T13:57:22.378Z,14.20
2018-01-30T13:59:50.928Z,15.63
2018-01-30T14:02:19.502Z,21.63
2018-01-30T14:04:47.993Z,19.37
2018-01-30T14:07:16.469Z,14.57
2018-01-30T14:09:44.851Z,16.63
2018-01-30T14:12:13.740Z,15.63
2018-01-30T14:14:43.017Z,15.20
2018-01-30T14:17:11.451Z,14.80
2018-01-30T14:19:40.008Z,14.47
2018-01-30T14:22:08.475Z,15.17
2018-01-30T14:24:36.786Z,16.60
2018-01-30T14:27:05.137Z,17.27
2018-01-30T14:29:33.612Z,21.23
2018-01-30T14:32:02.096Z,21.17
2018-01-30T14:34:30.580Z,24.30
2018-01-30T14:36:59.166Z,17.17
2018-01-30T14:41:52.333Z,16.73
2018-01-30T14:44:20.919Z,18.13
2018-01-30T14:46:49.294Z,19.40
2018-01-30T14:49:17.879Z,23.57
2018-01-30T14:51:46.303Z,18.90
2018-01-30T14:54:14.840Z,18.43
2018-01-30T14:56:43.277Z,32.33
2018-01-30T14:59:11.798Z,18.63
2018-01-30T15:01:53.591Z,19.07
2018-01-30T15:04:22.379Z,21.20
2018-01-30T15:06:50.860Z,19.13
2018-01-30T15:09:19.207Z,22.57
2018-01-30T15:11:48.635Z,20.90
2018-01-30T15:14:25.515Z,26.27
2018-01-30T15:16:55.341Z,20.23
2018-01-30T15:19:30.132Z,18.23
2018-01-30T15:22:07.454Z,18.20
2018-01-30T15:24:35.840Z,17.93
2018-01-30T15:27:04.211Z,13.53
2018-01-30T15:29:32.585Z,19.47
2018-01-30T15:32:02.349Z,17.93
2018-01-30T15:34:32.004Z,11.70
2018-01-30T15:37:00.497Z,16.27
2018-01-30T15:39:28.907Z,13.13
2018-01-30T15:42:04.362Z,10.90
2018-01-30T15:44:32.711Z,13.87
2018-01-30T15:47:01.017Z,14.13
2018-01-30T15:49:29.552Z,14.00
2018-01-30T15:51:58.070Z,11.57
2018-01-30T15:54:26.606Z,13.27
2018-01-30T15:56:56.418Z,14.43
2018-01-30T15:59:28.796Z,8.00
2018-01-30T16:01:57.277Z,17.17
2018-01-30T16:04:25.900Z,16.47
2018-01-30T16:06:54.344Z,15.47
2018-01-30T16:09:22.923Z,18.43
2018-01-30T16:11:51.507Z,15.40
2018-01-30T16:14:20.396Z,22.53
2018-01-30T16:16:48.702Z,14.10
2018-01-30T16:19:17.110Z,12.47
2018-01-30T16:21:50.551Z,13.90
2018-01-30T16:24:18.905Z,11.20
2018-01-30T16:26:47.311Z,19.63
2018-01-30T16:29:16.398Z,14.83
2018-01-30T16:31:46.112Z,16.50
2018-01-30T16:34:14.697Z,17.10
2018-01-30T16:36:44.585Z,18.77
2018-01-30T16:39:13.972Z,22.20
2018-01-30T16:41:42.494Z,14.30
2018-01-30T16:44:11.181Z,12.90
2018-01-30T16:46:39.657Z,20.17
2018-01-30T16:49:08.069Z,12.90
2018-01-30T16:51:49.123Z,13.83
2018-01-30T16:54:18.623Z,15.27
2018-01-30T16:56:48.071Z,9.77
2018-01-30T16:59:16.810Z,30.73
2018-01-30T17:01:45.287Z,24.90
2018-01-30T17:04:13.769Z,17.13
2018-01-30T17:06:53.991Z,13.57
2018-01-30T17:09:29.711Z,12.60
2018-01-30T17:11:58.220Z,14.53
2018-01-30T17:14:28.405Z,10.67
2018-01-30T17:16:56.852Z,12.77
2018-01-30T17:19:25.286Z,13.90
2018-01-30T17:21:55.651Z,16.37
2018-01-30T17:24:24.658Z,10.30
2018-01-30T17:26:54.303Z,13.60
2018-01-30T17:29:23.360Z,14.17
2018-01-30T17:31:53.824Z,11.50
2018-01-30T17:34:23.189Z,10.43
2018-01-30T17:36:51.669Z,12.40
2018-01-30T17:39:20.150Z,21.33
2018-01-30T17:41:56.975Z,13.37
2018-01-30T17:44:25.979Z,12.87
2018-01-30T17:46:54.443Z,8.83
2018-01-30T17:49:22.998Z,14.33
2018-01-30T17:51:51.571Z,11.77
2018-01-30T17:54:20.688Z,11.87
2018-01-30T17:56:49.102Z,15.73
2018-01-30T17:59:18.188Z,17.50
2018-01-30T18:01:46.613Z,13.27
2018-01-30T18:04:15.072Z,19.97
2018-01-30T18:06:43.517Z,23.70
2018-01-30T18:09:12.102Z,21.13
2018-01-30T18:11:40.464Z,22.27
2018-01-30T18:14:08.842Z,38.23
2018-01-30T18:16:38.012Z,21.63
2018-01-30T18:19:06.763Z,19.20
2018-01-30T18:21:35.841Z,25.93
2018-01-30T18:24:06.429Z,19.07
2018-01-30T18:26:34.906Z,21.50
2018-01-30T18:29:03.488Z,20.60
2018-01-30T18:31:32.186Z,18.37
2018-01-30T18:34:00.774Z,21.43
2018-01-30T18:36:38.674Z,22.33
2018-01-30T18:39:07.082Z,18.20
2018-01-30T18:41:37.086Z,15.70
2018-01-30T18:44:07.299Z,16.33
2018-01-30T18:46:43.286Z,13.27
2018-01-30T18:49:11.859Z,16.63
2018-01-30T18:51:41.804Z,14.43
2018-01-30T18:54:11.029Z,19.20
2018-01-30T18:56:39.733Z,27.03
2018-01-30T18:59:08.194Z,20.07
2018-01-30T19:01:36.531Z,22.20
2018-01-30T19:04:05.773Z,17.70
2018-01-30T19:06:49.008Z,23.87
2018-01-30T19:09:17.344Z,23.60
2018-01-30T19:11:46.532Z,21.43
2018-01-30T19:14:14.957Z,21.20
2018-01-30T19:16:46.407Z,26.93
2018-01-30T19:19:19.343Z,25.63
2018-01-30T19:21:49.430Z,21.90
2018-01-30T19:24:17.896Z,28.93
2018-01-30T19:26:46.304Z,18.97
2018-01-30T19:29:14.750Z,20.47
2018-01-30T19:31:43.225Z,20.00
2018-01-30T19:34:13.930Z,27.17
2018-01-30T19:36:43.877Z,20.43
2018-01-30T19:39:13.636Z,19.57
2018-01-30T19:41:56.392Z,20.53
2018-01-30T19:44:25.401Z,20.77
2018-01-30T19:46:54.081Z,21.67
2018-01-30T19:49:23.636Z,28.30
2018-01-30T19:51:52.887Z,22.83
2018-01-30T19:54:22.374Z,20.93
2018-01-30T19:56:52.622Z,22.83
2018-01-30T19:59:22.335Z,22.00
2018-01-30T20:01:52.587Z,20.87
2018-01-30T20:04:22.973Z,22.33
2018-01-30T20:06:51.574Z,21.47
2018-01-30T20:09:20.502Z,27.17
2018-01-30T20:11:49.809Z,22.60
2018-01-30T20:14:20.076Z,26.00
2018-01-30T20:16:48.658Z,32.27
2018-01-30T20:19:17.333Z,22.87
2018-01-30T20:21:45.784Z,31.23
2018-01-30T20:24:16.194Z,32.40
2018-01-30T20:26:45.543Z,26.67
2018-01-30T20:29:14.029Z,21.00
2018-01-30T20:31:43.041Z,28.13
2018-01-30T20:34:11.400Z,25.27
2018-01-30T20:36:39.791Z,20.73
2018-01-30T20:39:08.261Z,17.70
2018-01-30T20:41:36.742Z,19.37
2018-01-30T20:44:05.168Z,26.33
2018-01-30T20:46:34.413Z,16.43
2018-01-30T20:49:15.595Z,32.40
2018-01-30T20:51:44.028Z,30.73
2018-01-30T20:54:12.416Z,20.20
2018-01-30T20:56:42.371Z,17.03
2018-01-30T20:59:18.306Z,23.10
2018-01-30T21:01:46.730Z,16.13
2018-01-30T21:04:20.318Z,16.13
2018-01-30T21:07:02.271Z,18.87
2018-01-30T21:09:30.712Z,15.60
2018-01-30T21:11:59.061Z,18.37
2018-01-30T21:14:27.537Z,14.90
2018-01-30T21:16:56.179Z,14.43
2018-01-30T21:19:38.222Z,19.23
2018-01-30T21:22:06.714Z,23.33
2018-01-30T21:24:35.182Z,17.33
2018-01-30T21:27:03.617Z,13.97
2018-01-30T21:29:31.965Z,13.80
2018-01-30T21:32:19.573Z,14.90
2018-01-30T21:34:48.048Z,12.90
2018-01-30T21:37:16.812Z,16.07
2018-01-30T21:39:46.039Z,13.70
2018-01-30T21:42:17.922Z,12.10
2018-01-30T21:44:47.400Z,10.40
2018-01-30T21:47:15.780Z,12.13
2018-01-30T21:49:44.226Z,17.23
2018-01-30T21:52:13.435Z,13.73
2018-01-30T21:54:41.935Z,15.70
2018-01-30T21:57:10.852Z,12.87
2018-01-30T21:59:39.314Z,12.97
2018-01-30T22:02:07.892Z,11.77
2018-01-30T22:04:37.076Z,14.67
2018-01-30T22:07:06.344Z,14.83
2018-01-30T22:09:35.485Z,14.40
2018-01-30T22:12:04.134Z,16.27
2018-01-30T22:14:33.285Z,17.10
2018-01-30T22:17:01.750Z,14.50
2018-01-30T22:19:30.048Z,9.37
2018-01-30T22:21:58.718Z,13.07
2018-01-30T22:24:27.294Z,13.50
2018-01-30T22:26:57.973Z,9.50
2018-01-30T22:29:27.093Z,10.27
2018-01-30T22:31:56.440Z,9.57
2018-01-30T22:34:30.893Z,14.23
2018-01-30T22:37:07.323Z,11.13
2018-01-30T22:39:35.786Z,10.23
2018-01-30T22:42:23.210Z,8.73
2018-01-30T22:44:51.509Z,10.60
